Time;durP1;ratioP1;P1;durP2;ratioP2;P2;SDS_P1;SDS_P2;PMS_P1;PMS_P2;Temp;Humidity;BMP_temperature;BMP_pressure;BME280_temperature;BME280_humidity;BME280_pressure;Samples;Min_cycle;Max_cycle;Signal;HPM_P1;HPM_P2
2021/03/09 00:01:06;;;;;;;;;;;-0.20;94.80;;;;;;5097804;28;20355;-65
2021/03/09 00:03:32;;;;;;;;;;;-0.20;94.90;;;;;;5081046;28;19970;-66
2021/03/09 00:05:58;;;;;;;;;;;-0.20;94.80;;;;;;5099617;28;19948;-65
2021/03/09 00:08:24;;;;;;;;;;;-0.20;94.90;;;;;;5099358;28;20270;-66
2021/03/09 00:10:49;;;;;;;;;;;-0.30;95.10;;;;;;5099649;28;19931;-65
2021/03/09 00:13:16;;;;;;;;;;;-0.30;95.20;;;;;;5101564;28;20007;-66
2021/03/09 00:15:42;;;;;;;;;;;-0.40;95.30;;;;;;5096889;28;19932;-67
2021/03/09 00:18:11;;;;;;;;;;;-0.40;95.60;;;;;;5084645;28;19962;-66
2021/03/09 00:20:37;;;;;;;;;;;-0.40;95.60;;;;;;5102113;28;20242;-65
2021/03/09 00:23:04;;;;;;;;;;;-0.40;95.80;;;;;;5104247;28;19964;-66
2021/03/09 00:25:30;;;;;;;;;;;-0.40;95.70;;;;;;5102600;28;19959;-66
2021/03/09 00:27:56;;;;;;;;;;;-0.40;95.70;;;;;;5101531;28;20319;-65
2021/03/09 00:30:21;;;;;;;;;;;-0.40;95.90;;;;;;5096986;28;19923;-65
2021/03/09 00:32:47;;;;;;;;;;;-0.50;95.80;;;;;;5082533;28;19912;-68
2021/03/09 00:35:12;;;;;;;;;;;-0.60;96.10;;;;;;5103424;28;19920;-66
2021/03/09 00:37:38;;;;;;;;;;;-0.80;95.80;;;;;;5100923;28;20010;-66
2021/03/09 00:40:03;;;;;;;;;;;-0.80;96.40;;;;;;5100406;28;20317;-65
2021/03/09 00:42:29;;;;;;;;;;;-0.70;96.60;;;;;;5081610;28;19912;-66
2021/03/09 00:44:55;;;;;;;;;;;-0.70;96.40;;;;;;5102140;27;19919;-65
2021/03/09 00:47:20;;;;;;;;;;;-0.70;96.30;;;;;;5083589;28;19912;-65
2021/03/09 00:49:46;;;;;;;;;;;-0.90;96.10;;;;;;5103641;28;19912;-68
2021/03/09 00:52:11;;;;;;;;;;;-0.90;96.50;;;;;;5100300;28;19920;-68
2021/03/09 00:54:37;;;;;;;;;;;-1.00;96.60;;;;;;5084444;28;20011;-68
2021/03/09 00:57:03;;;;;;;;;;;-1.10;96.60;;;;;;5102005;28;19954;-67
2021/03/09 00:59:29;;;;;;;;;;;-1.00;97.00;;;;;;5099028;28;19928;-67
2021/03/09 01:01:54;;;;;;;;;;;-1.10;96.80;;;;;;5083749;28;19959;-68
2021/03/09 01:04:20;;;;;;;;;;;-1.20;96.70;;;;;;5105080;28;19920;-68
2021/03/09 01:06:45;;;;;;;;;;;-1.30;96.90;;;;;;5101305;28;20181;-68
2021/03/09 01:09:11;;;;;;;;;;;-1.40;97.00;;;;;;5086045;28;19916;-67
2021/03/09 01:11:36;;;;;;;;;;;-1.40;97.10;;;;;;5102597;28;19930;-67
2021/03/09 01:14:02;;;;;;;;;;;-1.50;97.00;;;;;;5103127;28;20381;-67
2021/03/09 01:16:27;;;;;;;;;;;-1.60;97.40;;;;;;5104929;28;19936;-67
2021/03/09 01:18:53;;;;;;;;;;;-1.70;97.10;;;;;;5102431;28;20319;-66
2021/03/09 01:21:18;;;;;;;;;;;-1.60;97.40;;;;;;5079314;28;19916;-67
2021/03/09 01:23:44;;;;;;;;;;;-1.50;97.70;;;;;;5102210;28;19923;-67
2021/03/09 01:26:09;;;;;;;;;;;-1.60;97.40;;;;;;5099386;28;19919;-67
2021/03/09 01:28:35;;;;;;;;;;;-1.70;97.50;;;;;;5105156;28;19916;-67
2021/03/09 01:31:00;;;;;;;;;;;-1.80;97.40;;;;;;5095941;28;19919;-67
2021/03/09 01:33:26;;;;;;;;;;;-2.00;97.40;;;;;;5099098;28;19912;-67
2021/03/09 01:35:51;;;;;;;;;;;-2.10;97.60;;;;;;5086418;28;19912;-67
2021/03/09 01:38:17;;;;;;;;;;;-2.10;97.60;;;;;;5099130;28;19920;-67
2021/03/09 01:40:43;;;;;;;;;;;-2.20;97.60;;;;;;5101597;28;20224;-67
2021/03/09 01:43:08;;;;;;;;;;;-2.20;97.70;;;;;;5097843;28;19951;-67
2021/03/09 01:45:34;;;;;;;;;;;-2.30;97.70;;;;;;5098328;28;19920;-66
2021/03/09 01:48:01;;;;;;;;;;;-2.30;97.60;;;;;;5087874;28;19916;-66
2021/03/09 01:50:27;;;;;;;;;;;-2.30;97.70;;;;;;5098806;28;19919;-67
2021/03/09 01:52:53;;;;;;;;;;;-2.30;98.00;;;;;;5099391;28;19912;-68
2021/03/09 01:55:19;;;;;;;;;;;-2.30;97.70;;;;;;5101184;28;20243;-67
2021/03/09 01:57:45;;;;;;;;;;;-2.30;97.90;;;;;;5087866;28;19920;-65
2021/03/09 02:00:11;;;;;;;;;;;-2.40;98.00;;;;;;5107348;27;19911;-67
2021/03/09 02:02:36;;;;;;;;;;;-2.50;97.50;;;;;;5084557;28;20288;-66
2021/03/09 02:05:09;;;;;;;;;;;-2.40;98.00;;;;;;5106411;28;20216;-67
2021/03/09 02:07:34;;;;;;;;;;;-2.40;98.00;;;;;;5102966;28;19927;-67
2021/03/09 02:10:00;;;;;;;;;;;-2.40;98.00;;;;;;5101831;28;20323;-66
2021/03/09 02:12:35;;;;;;;;;;;-2.40;97.80;;;;;;5106589;28;20303;-66
2021/03/09 02:15:12;;;;;;;;;;;-2.20;98.00;;;;;;5105984;28;19913;-67
2021/03/09 02:17:41;;;;;;;;;;;-2.20;98.00;;;;;;5103118;28;19966;-68
2021/03/09 02:20:34;;;;;;;;;;;-2.40;98.00;;;;;;5101676;27;21327;-67
2021/03/09 02:23:00;;;;;;;;;;;-2.60;97.90;;;;;;5084416;28;20339;-68
2021/03/09 02:25:25;;;;;;;;;;;-2.60;98.00;;;;;;5108204;28;20007;-67
2021/03/09 02:27:50;;;;;;;;;;;-2.60;97.90;;;;;;5105738;28;19928;-67
2021/03/09 02:30:23;;;;;;;;;;;-2.70;98.00;;;;;;5100051;28;19912;-67
2021/03/09 02:32:53;;;;;;;;;;;-2.80;97.50;;;;;;5106111;28;19924;-67
2021/03/09 02:35:20;;;;;;;;;;;-2.70;98.00;;;;;;5104139;28;20300;-67
2021/03/09 02:37:47;;;;;;;;;;;-2.80;98.00;;;;;;5085790;28;19920;-65
2021/03/09 02:40:14;;;;;;;;;;;-2.90;97.80;;;;;;5105352;28;19919;-67
2021/03/09 02:42:46;;;;;;;;;;;-2.90;98.00;;;;;;5105153;28;20643;-67
2021/03/09 02:45:13;;;;;;;;;;;-3.00;97.90;;;;;;5103725;28;19927;-66
2021/03/09 02:47:39;;;;;;;;;;;-3.00;97.80;;;;;;5103280;28;19912;-67
2021/03/09 02:50:05;;;;;;;;;;;-3.00;98.00;;;;;;5107369;27;19916;-66
2021/03/09 02:52:31;;;;;;;;;;;-3.20;98.00;;;;;;5100053;28;20325;-67
2021/03/09 02:54:57;;;;;;;;;;;-3.30;97.80;;;;;;5105892;28;19955;-66
2021/03/09 02:57:23;;;;;;;;;;;-3.40;97.80;;;;;;5102943;28;19959;-68
2021/03/09 02:59:49;;;;;;;;;;;-3.40;98.00;;;;;;5103920;28;20001;-67
2021/03/09 03:02:17;;;;;;;;;;;-3.40;98.00;;;;;;5102624;28;19916;-65
2021/03/09 03:04:44;;;;;;;;;;;-3.40;97.80;;;;;;5103504;28;19920;-67
2021/03/09 03:07:10;;;;;;;;;;;-3.50;97.70;;;;;;5100008;28;19951;-67
2021/03/09 03:09:36;;;;;;;;;;;-3.50;97.80;;;;;;5105195;28;19924;-67
2021/03/09 03:12:02;;;;;;;;;;;-3.50;97.90;;;;;;5103857;28;19920;-67
2021/03/09 03:14:29;;;;;;;;;;;-3.60;97.80;;;;;;5085228;28;20049;-67
2021/03/09 03:16:55;;;;;;;;;;;-3.60;97.70;;;;;;5100089;28;19935;-67
2021/03/09 03:19:24;;;;;;;;;;;-3.60;97.90;;;;;;5084826;28;19920;-67
2021/03/09 03:21:50;;;;;;;;;;;-3.60;97.90;;;;;;5099502;28;19920;-67
2021/03/09 03:24:16;;;;;;;;;;;-3.50;97.80;;;;;;5104108;28;19918;-67
2021/03/09 03:26:44;;;;;;;;;;;-3.50;97.90;;;;;;5081691;28;20305;-67
2021/03/09 03:29:10;;;;;;;;;;;-3.50;97.80;;;;;;5083753;28;19946;-67
2021/03/09 03:31:36;;;;;;;;;;;-3.50;97.70;;;;;;5100307;28;20229;-66
2021/03/09 03:34:02;;;;;;;;;;;-3.40;98.00;;;;;;5104808;28;20003;-65
2021/03/09 03:36:28;;;;;;;;;;;-3.50;98.00;;;;;;5082051;28;20327;-65
2021/03/09 03:38:54;;;;;;;;;;;-3.50;97.90;;;;;;5101079;28;19924;-65
2021/03/09 03:41:20;;;;;;;;;;;-3.50;97.70;;;;;;5098891;28;19995;-65
2021/03/09 03:43:45;;;;;;;;;;;-3.40;97.90;;;;;;5108262;28;19998;-65
2021/03/09 03:46:11;;;;;;;;;;;-3.30;98.00;;;;;;5101508;27;19977;-67
2021/03/09 03:48:37;;;;;;;;;;;-3.30;97.90;;;;;;5104152;28;19920;-67
2021/03/09 03:51:05;;;;;;;;;;;-3.30;98.00;;;;;;5099636;28;19973;-66
2021/03/09 03:53:33;;;;;;;;;;;-3.30;98.00;;;;;;5101812;28;19946;-67
2021/03/09 03:55:58;;;;;;;;;;;-3.40;98.00;;;;;;5102820;28;19912;-67
2021/03/09 03:58:30;;;;;;;;;;;-3.60;98.00;;;;;;5104177;28;20237;-67
2021/03/09 04:00:56;;;;;;;;;;;-3.70;97.90;;;;;;5102828;28;20336;-66
2021/03/09 04:03:22;;;;;;;;;;;-3.80;97.90;;;;;;5099693;28;19916;-67
2021/03/09 04:05:49;;;;;;;;;;;-3.80;97.90;;;;;;5079918;28;19920;-67
2021/03/09 04:08:15;;;;;;;;;;;-3.90;98.00;;;;;;5102937;28;19924;-67
2021/03/09 04:10:41;;;;;;;;;;;-4.00;98.00;;;;;;5102662;28;19912;-66
2021/03/09 04:13:07;;;;;;;;;;;-4.00;97.80;;;;;;5101856;28;19916;-67
2021/03/09 04:15:33;;;;;;;;;;;-4.10;97.90;;;;;;5098434;28;19928;-66
2021/03/09 04:18:01;;;;;;;;;;;-4.10;97.80;;;;;;5097824;28;20236;-67
2021/03/09 04:20:27;;;;;;;;;;;-4.10;97.90;;;;;;5101621;28;20236;-66
2021/03/09 04:22:53;;;;;;;;;;;-4.10;97.80;;;;;;5104363;28;19927;-66
2021/03/09 04:25:19;;;;;;;;;;;-4.00;97.80;;;;;;5105663;28;20368;-67
2021/03/09 04:27:45;;;;;;;;;;;-4.10;98.00;;;;;;5102767;28;19920;-66
2021/03/09 04:30:12;;;;;;;;;;;-4.10;97.90;;;;;;5102233;28;19949;-69
2021/03/09 04:32:38;;;;;;;;;;;-4.10;97.70;;;;;;5105888;28;20402;-67
2021/03/09 04:35:04;;;;;;;;;;;-4.00;97.80;;;;;;5099603;28;19959;-67
2021/03/09 04:37:30;;;;;;;;;;;-3.90;97.90;;;;;;5101852;28;19912;-67
2021/03/09 04:39:56;;;;;;;;;;;-3.90;98.00;;;;;;5082935;28;20288;-67
2021/03/09 04:42:21;;;;;;;;;;;-4.00;97.90;;;;;;5100819;28;20015;-67
2021/03/09 04:44:49;;;;;;;;;;;-3.90;97.90;;;;;;5085341;27;20580;-67
2021/03/09 04:47:14;;;;;;;;;;;-3.90;98.00;;;;;;5100325;28;19912;-67
2021/03/09 04:49:40;;;;;;;;;;;-3.80;98.00;;;;;;5104977;28;19969;-67
2021/03/09 04:52:05;;;;;;;;;;;-3.80;97.90;;;;;;5100948;28;19924;-66
2021/03/09 04:54:33;;;;;;;;;;;-3.80;98.00;;;;;;5099808;28;19919;-65
2021/03/09 04:56:58;;;;;;;;;;;-3.80;97.80;;;;;;5098612;28;19981;-67
2021/03/09 04:59:24;;;;;;;;;;;-3.70;97.90;;;;;;5102662;28;20275;-67
2021/03/09 05:01:49;;;;;;;;;;;-3.60;98.00;;;;;;5099571;28;20274;-67
2021/03/09 05:04:15;;;;;;;;;;;-3.50;98.00;;;;;;5098622;28;20275;-67
2021/03/09 05:06:40;;;;;;;;;;;-3.70;98.00;;;;;;5100490;28;20228;-67
2021/03/09 05:09:07;;;;;;;;;;;-3.80;97.90;;;;;;5103299;28;19955;-67
2021/03/09 05:11:33;;;;;;;;;;;-3.70;98.00;;;;;;5102529;28;19951;-66
2021/03/09 05:13:58;;;;;;;;;;;-3.70;98.00;;;;;;5098022;28;19951;-66
2021/03/09 05:16:24;;;;;;;;;;;-3.90;98.00;;;;;;5096440;28;20369;-67
2021/03/09 05:18:50;;;;;;;;;;;-4.00;98.00;;;;;;5098686;28;19978;-69
2021/03/09 05:21:15;;;;;;;;;;;-3.90;97.90;;;;;;5086115;28;20324;-67
2021/03/09 05:23:41;;;;;;;;;;;-3.80;98.00;;;;;;5099003;28;19920;-66
2021/03/09 05:26:07;;;;;;;;;;;-3.70;98.00;;;;;;5080341;28;19919;-65
2021/03/09 05:28:32;;;;;;;;;;;-3.80;98.00;;;;;;5102072;28;19923;-66
2021/03/09 05:30:59;;;;;;;;;;;-3.90;98.00;;;;;;5100549;28;19920;-66
2021/03/09 05:33:24;;;;;;;;;;;-3.80;98.00;;;;;;5100411;28;19916;-66
2021/03/09 05:35:50;;;;;;;;;;;-3.80;98.00;;;;;;5078793;28;20357;-67
2021/03/09 05:38:15;;;;;;;;;;;-3.90;98.00;;;;;;5100942;28;19920;-67
2021/03/09 05:40:41;;;;;;;;;;;-3.80;97.90;;;;;;5100097;28;19970;-67
2021/03/09 05:43:06;;;;;;;;;;;-3.80;98.00;;;;;;5099711;28;19957;-67
2021/03/09 05:45:32;;;;;;;;;;;-3.90;98.00;;;;;;5099747;28;19931;-67
2021/03/09 05:47:58;;;;;;;;;;;-3.90;98.00;;;;;;5099745;28;19916;-65
2021/03/09 05:50:23;;;;;;;;;;;-3.90;98.00;;;;;;5098874;28;19990;-65
2021/03/09 05:52:49;;;;;;;;;;;-4.00;98.00;;;;;;5097989;28;19919;-66
2021/03/09 05:55:15;;;;;;;;;;;-4.10;98.00;;;;;;5099519;28;19983;-65
2021/03/09 05:57:41;;;;;;;;;;;-4.20;98.00;;;;;;5097803;28;19920;-65
2021/03/09 06:00:10;;;;;;;;;;;-4.30;98.00;;;;;;5095351;28;19912;-65
2021/03/09 06:02:36;;;;;;;;;;;-4.30;98.00;;;;;;5098710;28;19953;-65
2021/03/09 06:05:03;;;;;;;;;;;-4.20;97.80;;;;;;5097661;28;19920;-66
2021/03/09 06:07:28;;;;;;;;;;;-4.00;98.00;;;;;;5099607;28;19912;-66
2021/03/09 06:09:54;;;;;;;;;;;-3.90;98.00;;;;;;5098123;28;19927;-67
2021/03/09 06:12:21;;;;;;;;;;;-3.70;98.00;;;;;;5081761;28;19920;-66
2021/03/09 06:14:56;;;;;;;;;;;-3.60;98.00;;;;;;5098372;28;19912;-67
2021/03/09 06:17:23;;;;;;;;;;;-3.40;98.00;;;;;;5097912;28;20258;-67
2021/03/09 06:19:49;;;;;;;;;;;-3.30;98.00;;;;;;5101307;28;19918;-67
2021/03/09 06:22:15;;;;;;;;;;;-3.20;98.00;;;;;;5090451;28;19912;-67
2021/03/09 06:24:41;;;;;;;;;;;-3.10;98.00;;;;;;5114893;28;19978;-66
2021/03/09 06:27:22;;;;;;;;;;;-3.00;98.00;;;;;;5116044;28;20300;-66
2021/03/09 06:29:47;;;;;;;;;;;-2.90;98.00;;;;;;5115983;28;19958;-65
2021/03/09 06:32:13;;;;;;;;;;;-2.80;98.00;;;;;;5114288;28;20628;-65
2021/03/09 06:34:38;;;;;;;;;;;-2.70;98.00;;;;;;5115165;28;19922;-64
2021/03/09 06:37:15;;;;;;;;;;;-2.70;98.00;;;;;;5115805;28;19923;-65
2021/03/09 06:39:40;;;;;;;;;;;-2.60;98.00;;;;;;5115634;28;20205;-67
2021/03/09 06:42:06;;;;;;;;;;;-2.50;98.00;;;;;;5115656;28;19919;-66
2021/03/09 06:44:31;;;;;;;;;;;-2.50;98.00;;;;;;5117182;28;19992;-66
2021/03/09 06:46:57;;;;;;;;;;;-2.40;98.00;;;;;;5106564;28;19913;-66
2021/03/09 06:49:22;;;;;;;;;;;-2.30;98.00;;;;;;5098980;28;20285;-67
2021/03/09 06:51:48;;;;;;;;;;;-2.20;98.00;;;;;;5099121;28;20212;-67
2021/03/09 06:54:13;;;;;;;;;;;-2.00;98.00;;;;;;5090505;28;20341;-67
2021/03/09 06:56:40;;;;;;;;;;;-1.90;98.00;;;;;;5117471;28;19920;-67
2021/03/09 06:59:23;;;;;;;;;;;-1.80;98.00;;;;;;5114470;28;19912;-66
2021/03/09 07:02:08;;;;;;;;;;;-1.70;98.00;;;;;;5105634;28;19961;-67
2021/03/09 07:04:34;;;;;;;;;;;-1.70;98.00;;;;;;5109139;28;20337;-65
2021/03/09 07:07:00;;;;;;;;;;;-1.60;98.00;;;;;;5092029;28;19908;-66
2021/03/09 07:09:26;;;;;;;;;;;-1.50;98.00;;;;;;5118536;28;19915;-66
2021/03/09 07:11:52;;;;;;;;;;;-1.30;98.00;;;;;;5119154;28;19912;-67
2021/03/09 07:14:18;;;;;;;;;;;-1.10;98.00;;;;;;5107155;28;20288;-67
2021/03/09 07:16:48;;;;;;;;;;;-1.10;98.00;;;;;;5105692;28;19945;-67
2021/03/09 07:19:25;;;;;;;;;;;-1.00;98.00;;;;;;5116436;28;19961;-66
2021/03/09 07:21:50;;;;;;;;;;;-0.90;98.00;;;;;;5116647;28;20320;-65
2021/03/09 07:24:18;;;;;;;;;;;-0.80;97.60;;;;;;5104297;28;19920;-66
2021/03/09 07:26:45;;;;;;;;;;;-0.60;97.90;;;;;;5106765;28;20446;-66
2021/03/09 07:29:11;;;;;;;;;;;-0.40;97.80;;;;;;5118222;28;19916;-66
2021/03/09 07:31:39;;;;;;;;;;;-0.30;96.70;;;;;;5117370;28;19931;-66
2021/03/09 07:34:05;;;;;;;;;;;-0.30;96.00;;;;;;5107043;28;19920;-67
2021/03/09 07:36:32;;;;;;;;;;;-0.20;95.90;;;;;;5104199;28;19912;-66
2021/03/09 07:38:58;;;;;;;;;;;-0.20;95.80;;;;;;5117886;28;20329;-66
2021/03/09 07:41:23;;;;;;;;;;;-0.10;95.90;;;;;;5119765;27;19994;-66
2021/03/09 07:43:49;;;;;;;;;;;0.00;95.80;;;;;;5098976;28;20282;-66
2021/03/09 07:46:15;;;;;;;;;;;0.10;95.90;;;;;;5105284;28;19920;-66
2021/03/09 07:48:40;;;;;;;;;;;0.20;95.90;;;;;;5118346;28;19916;-66
2021/03/09 07:51:06;;;;;;;;;;;0.30;95.30;;;;;;5112372;28;19951;-65
2021/03/09 07:53:32;;;;;;;;;;;0.40;95.00;;;;;;5119115;27;20001;-66
2021/03/09 07:56:03;;;;;;;;;;;0.40;94.70;;;;;;5120281;27;19935;-66
2021/03/09 07:58:29;;;;;;;;;;;0.60;94.30;;;;;;5117703;28;19912;-66
2021/03/09 08:01:07;;;;;;;;;;;0.90;94.20;;;;;;5115020;28;20311;-66
2021/03/09 08:03:34;;;;;;;;;;;1.40;93.30;;;;;;5118131;28;20259;-66
2021/03/09 08:06:00;;;;;;;;;;;1.60;91.80;;;;;;5102066;28;19919;-66
2021/03/09 08:08:41;;;;;;;;;;;1.90;90.50;;;;;;5097482;28;19923;-66
2021/03/09 08:11:13;;;;;;;;;;;2.10;89.80;;;;;;5114178;28;19919;-67
2021/03/09 08:13:38;;;;;;;;;;;2.50;89.00;;;;;;5104099;28;19912;-65
2021/03/09 08:16:19;;;;;;;;;;;2.40;87.40;;;;;;5112089;28;19919;-66
2021/03/09 08:18:45;;;;;;;;;;;2.40;87.70;;;;;;5117158;28;19999;-67
2021/03/09 08:21:11;;;;;;;;;;;2.50;87.40;;;;;;5099743;28;19947;-66
2021/03/09 08:23:39;;;;;;;;;;;2.40;87.40;;;;;;5107988;28;19931;-66
2021/03/09 08:26:06;;;;;;;;;;;2.30;87.70;;;;;;5117742;28;19912;-67
2021/03/09 08:28:32;;;;;;;;;;;2.40;88.00;;;;;;5116686;28;19984;-66
2021/03/09 08:31:27;;;;;;;;;;;2.60;87.70;;;;;;5116283;28;19908;-66
2021/03/09 08:33:53;;;;;;;;;;;2.60;86.80;;;;;;5092406;28;20254;-66
2021/03/09 08:36:18;;;;;;;;;;;2.60;87.50;;;;;;5096866;28;19916;-66
2021/03/09 08:39:04;;;;;;;;;;;2.60;87.50;;;;;;5104895;28;20002;-66
2021/03/09 08:41:42;;;;;;;;;;;2.70;86.50;;;;;;5117313;28;19908;-66
2021/03/09 08:44:18;;;;;;;;;;;2.90;85.80;;;;;;5104827;28;19912;-66
2021/03/09 08:46:56;;;;;;;;;;;3.40;84.90;;;;;;5102578;28;19911;-66
2021/03/09 08:49:33;;;;;;;;;;;4.00;82.60;;;;;;5116989;28;20308;-66
2021/03/09 08:51:59;;;;;;;;;;;4.40;81.40;;;;;;5116498;28;19912;-66
2021/03/09 08:54:28;;;;;;;;;;;5.20;80.10;;;;;;5096890;28;19938;-67
2021/03/09 08:56:54;;;;;;;;;;;5.60;78.00;;;;;;5107625;28;19916;-67
2021/03/09 08:59:29;;;;;;;;;;;6.10;76.60;;;;;;5116814;28;19912;-66
2021/03/09 09:02:03;;;;;;;;;;;6.50;74.90;;;;;;5111015;28;19911;-67
2021/03/09 09:04:29;;;;;;;;;;;6.80;74.40;;;;;;5116336;28;19915;-66
2021/03/09 09:06:54;;;;;;;;;;;7.10;73.20;;;;;;5102779;28;19936;-67
2021/03/09 09:09:30;;;;;;;;;;;7.30;72.20;;;;;;5114040;28;19916;-66
2021/03/09 09:11:56;;;;;;;;;;;7.10;72.60;;;;;;5116171;28;19912;-66
2021/03/09 09:14:21;;;;;;;;;;;6.60;73.50;;;;;;5114054;28;19934;-66
2021/03/09 09:16:47;;;;;;;;;;;6.00;75.20;;;;;;5113558;28;20223;-66
2021/03/09 09:19:12;;;;;;;;;;;5.70;76.40;;;;;;5114836;28;19920;-66
2021/03/09 09:21:44;;;;;;;;;;;5.80;76.60;;;;;;5116114;28;19920;-66
2021/03/09 09:24:20;;;;;;;;;;;6.00;75.50;;;;;;5115728;28;19912;-65
2021/03/09 09:26:56;;;;;;;;;;;6.20;74.90;;;;;;5116678;28;19912;-65
2021/03/09 09:29:21;;;;;;;;;;;6.80;73.10;;;;;;5116252;28;19916;-65
2021/03/09 09:31:57;;;;;;;;;;;7.20;72.20;;;;;;5114620;28;19912;-65
2021/03/09 09:34:36;;;;;;;;;;;7.40;71.10;;;;;;5115650;28;19916;-67
2021/03/09 09:37:08;;;;;;;;;;;7.60;70.90;;;;;;5116534;28;20283;-67
2021/03/09 09:39:34;;;;;;;;;;;7.10;71.30;;;;;;5116518;28;20022;-67
2021/03/09 09:42:00;;;;;;;;;;;7.10;71.50;;;;;;5116109;28;19922;-67
2021/03/09 09:44:26;;;;;;;;;;;7.40;72.30;;;;;;5111987;28;20034;-67
2021/03/09 09:46:51;;;;;;;;;;;7.60;71.00;;;;;;5094732;28;19962;-67
2021/03/09 09:49:17;;;;;;;;;;;7.50;70.50;;;;;;5095834;28;19914;-67
2021/03/09 09:51:43;;;;;;;;;;;7.40;71.60;;;;;;5101274;28;19951;-67
2021/03/09 09:54:12;;;;;;;;;;;7.50;71.10;;;;;;5116215;28;19914;-66
2021/03/09 09:56:37;;;;;;;;;;;7.40;71.00;;;;;;5115717;28;20338;-67
2021/03/09 09:59:03;;;;;;;;;;;7.70;71.40;;;;;;5115925;28;19912;-67
2021/03/09 10:01:31;;;;;;;;;;;8.00;70.20;;;;;;5096741;28;19927;-67
2021/03/09 10:04:15;;;;;;;;;;;8.20;69.50;;;;;;5116039;28;19915;-67
2021/03/09 10:06:42;;;;;;;;;;;8.10;70.00;;;;;;5115527;28;19915;-68
2021/03/09 10:09:18;;;;;;;;;;;8.60;68.60;;;;;;5116141;28;19911;-67
2021/03/09 10:11:45;;;;;;;;;;;8.50;68.30;;;;;;5115429;28;19919;-67
2021/03/09 10:14:11;;;;;;;;;;;8.10;68.70;;;;;;5115844;28;19912;-67
2021/03/09 10:16:37;;;;;;;;;;;8.20;69.70;;;;;;5102724;28;19919;-67
2021/03/09 10:19:03;;;;;;;;;;;8.30;69.30;;;;;;5106329;28;19919;-67
2021/03/09 10:21:32;;;;;;;;;;;8.10;69.70;;;;;;5136465;27;19907;-67
2021/03/09 10:23:59;;;;;;;;;;;8.40;70.20;;;;;;5117646;28;19915;-67
2021/03/09 10:26:35;;;;;;;;;;;8.50;69.50;;;;;;5099571;28;20313;-67
2021/03/09 10:29:01;;;;;;;;;;;8.30;69.10;;;;;;5119691;28;19915;-66
2021/03/09 10:31:36;;;;;;;;;;;8.10;69.60;;;;;;5116816;28;19912;-67
2021/03/09 10:34:04;;;;;;;;;;;8.30;70.30;;;;;;5108019;28;19912;-67
2021/03/09 10:36:48;;;;;;;;;;;8.60;68.90;;;;;;5103271;28;19911;-68
2021/03/09 10:39:15;;;;;;;;;;;8.60;68.30;;;;;;5119558;28;19908;-67
2021/03/09 10:41:41;;;;;;;;;;;8.40;67.70;;;;;;5117739;28;19958;-67
2021/03/09 10:44:06;;;;;;;;;;;8.30;69.20;;;;;;5113250;28;19955;-68
2021/03/09 10:46:35;;;;;;;;;;;8.90;69.20;;;;;;5117461;28;19919;-68
2021/03/09 10:49:00;;;;;;;;;;;9.60;66.30;;;;;;5106747;27;20228;-68
2021/03/09 10:51:26;;;;;;;;;;;9.50;65.90;;;;;;5099923;28;19955;-68
2021/03/09 10:53:51;;;;;;;;;;;9.60;66.60;;;;;;5119351;28;19908;-68
2021/03/09 10:56:17;;;;;;;;;;;9.80;65.30;;;;;;5118848;28;19990;-68
2021/03/09 10:58:42;;;;;;;;;;;9.30;65.70;;;;;;5118223;28;19915;-68
2021/03/09 11:01:08;;;;;;;;;;;9.50;65.70;;;;;;5112914;28;19912;-68
2021/03/09 11:03:34;;;;;;;;;;;9.30;65.70;;;;;;5116766;28;19939;-68
2021/03/09 11:05:59;;;;;;;;;;;9.30;67.10;;;;;;5105282;28;20266;-68
2021/03/09 11:08:25;;;;;;;;;;;9.40;65.80;;;;;;5114748;28;19958;-67
2021/03/09 11:10:51;;;;;;;;;;;9.40;65.80;;;;;;5116459;28;19911;-68
2021/03/09 11:13:17;;;;;;;;;;;9.60;65.20;;;;;;5119247;28;19915;-68
2021/03/09 11:15:43;;;;;;;;;;;9.30;65.10;;;;;;5101483;28;19920;-68
2021/03/09 11:18:08;;;;;;;;;;;8.50;66.70;;;;;;5105593;28;19919;-68
2021/03/09 11:20:34;;;;;;;;;;;8.50;67.30;;;;;;5118708;28;20371;-68
2021/03/09 11:22:59;;;;;;;;;;;8.50;67.80;;;;;;5118274;28;19915;-68
2021/03/09 11:25:26;;;;;;;;;;;8.80;67.20;;;;;;5116933;28;19919;-68
2021/03/09 11:27:52;;;;;;;;;;;9.20;66.30;;;;;;5114027;28;20194;-68
2021/03/09 11:30:18;;;;;;;;;;;9.20;66.70;;;;;;5095892;28;19973;-68
2021/03/09 11:32:43;;;;;;;;;;;9.00;66.00;;;;;;5100987;28;19912;-68
2021/03/09 11:35:09;;;;;;;;;;;9.30;66.00;;;;;;5107639;28;19916;-68
2021/03/09 11:37:35;;;;;;;;;;;9.50;65.80;;;;;;5118131;28;19908;-67
2021/03/09 11:40:02;;;;;;;;;;;9.70;64.80;;;;;;5118558;28;20491;-67
2021/03/09 11:42:28;;;;;;;;;;;9.50;64.70;;;;;;5119062;27;19908;-68
2021/03/09 11:44:53;;;;;;;;;;;9.70;64.20;;;;;;5116984;28;19922;-67
2021/03/09 11:47:19;;;;;;;;;;;9.90;62.70;;;;;;5117282;28;20482;-68
2021/03/09 11:49:44;;;;;;;;;;;10.10;60.70;;;;;;5118321;28;19965;-67
2021/03/09 11:52:10;;;;;;;;;;;10.40;61.70;;;;;;5116319;28;19912;-67
2021/03/09 11:54:35;;;;;;;;;;;10.60;62.10;;;;;;5114518;28;19919;-68
2021/03/09 11:57:01;;;;;;;;;;;11.10;62.60;;;;;;5104416;28;20201;-68
2021/03/09 11:59:26;;;;;;;;;;;11.00;60.90;;;;;;5097818;28;19912;-68
2021/03/09 12:01:52;;;;;;;;;;;11.30;60.50;;;;;;5105091;28;19978;-67
2021/03/09 12:04:17;;;;;;;;;;;11.10;59.70;;;;;;5116892;28;19915;-67
2021/03/09 12:06:43;;;;;;;;;;;10.50;60.10;;;;;;5118173;27;20231;-67
2021/03/09 12:09:09;;;;;;;;;;;10.70;60.00;;;;;;5118050;27;19916;-67
2021/03/09 12:11:35;;;;;;;;;;;10.30;60.50;;;;;;5114757;28;20327;-66
2021/03/09 12:14:01;;;;;;;;;;;10.10;57.30;;;;;;5108299;28;19919;-67
2021/03/09 12:16:28;;;;;;;;;;;10.50;58.10;;;;;;5105224;28;20388;-66
2021/03/09 12:18:53;;;;;;;;;;;10.90;57.30;;;;;;5117826;27;20324;-65
2021/03/09 12:21:19;;;;;;;;;;;10.90;56.40;;;;;;5116929;28;20010;-66
2021/03/09 12:23:46;;;;;;;;;;;10.50;55.90;;;;;;5115172;28;20304;-65
2021/03/09 12:26:12;;;;;;;;;;;10.30;57.50;;;;;;5100731;28;19916;-66
2021/03/09 12:28:38;;;;;;;;;;;10.50;56.60;;;;;;5114781;27;19977;-67
2021/03/09 12:31:03;;;;;;;;;;;10.40;56.30;;;;;;5105602;28;19915;-66
2021/03/09 12:33:29;;;;;;;;;;;10.40;55.20;;;;;;5101091;28;19915;-67
2021/03/09 12:35:55;;;;;;;;;;;9.80;55.60;;;;;;5105305;28;19922;-67
2021/03/09 12:38:20;;;;;;;;;;;9.40;57.00;;;;;;5084586;28;19976;-67
2021/03/09 12:40:46;;;;;;;;;;;9.50;57.20;;;;;;5102216;28;19947;-67
2021/03/09 12:43:11;;;;;;;;;;;9.70;56.40;;;;;;5114632;28;20002;-67
2021/03/09 12:45:37;;;;;;;;;;;10.20;56.50;;;;;;5114538;28;19965;-66
2021/03/09 12:48:03;;;;;;;;;;;10.80;55.50;;;;;;5117155;28;19921;-66
2021/03/09 12:50:29;;;;;;;;;;;11.10;53.20;;;;;;5098024;28;19912;-65
2021/03/09 12:52:54;;;;;;;;;;;10.90;53.10;;;;;;5116720;28;20006;-66
2021/03/09 12:55:20;;;;;;;;;;;10.30;54.30;;;;;;5115324;28;19912;-66
2021/03/09 12:57:46;;;;;;;;;;;9.90;56.50;;;;;;5117003;28;19907;-65
2021/03/09 13:00:12;;;;;;;;;;;10.00;56.40;;;;;;5114970;27;19919;-66
2021/03/09 13:02:37;;;;;;;;;;;10.10;56.10;;;;;;5117395;27;20207;-67
2021/03/09 13:05:04;;;;;;;;;;;10.30;55.60;;;;;;5097367;28;20345;-67
2021/03/09 13:07:30;;;;;;;;;;;10.10;56.60;;;;;;5116328;28;19995;-66
2021/03/09 13:09:56;;;;;;;;;;;10.30;56.60;;;;;;5116179;28;20064;-67
2021/03/09 13:12:21;;;;;;;;;;;10.40;56.20;;;;;;5116633;28;20172;-67
2021/03/09 13:14:47;;;;;;;;;;;10.30;56.30;;;;;;5115943;28;20251;-67
2021/03/09 13:17:12;;;;;;;;;;;10.50;57.40;;;;;;5114403;28;19919;-66
2021/03/09 13:19:38;;;;;;;;;;;10.20;57.40;;;;;;5116255;28;19916;-68
2021/03/09 13:22:04;;;;;;;;;;;9.80;57.80;;;;;;5114393;28;20447;-67
2021/03/09 13:24:30;;;;;;;;;;;9.50;58.50;;;;;;5114964;28;19930;-67
2021/03/09 13:26:55;;;;;;;;;;;9.50;58.20;;;;;;5116188;28;20201;-67
2021/03/09 13:29:21;;;;;;;;;;;9.40;59.00;;;;;;5115336;28;19919;-67
2021/03/09 13:31:47;;;;;;;;;;;9.10;59.50;;;;;;5114604;28;20312;-66
2021/03/09 13:34:12;;;;;;;;;;;8.90;59.20;;;;;;5115915;28;19923;-67
2021/03/09 13:36:38;;;;;;;;;;;9.10;59.90;;;;;;5114745;28;19920;-68
2021/03/09 13:39:04;;;;;;;;;;;8.90;59.70;;;;;;5115823;28;19915;-66
2021/03/09 13:41:30;;;;;;;;;;;8.50;59.80;;;;;;5115022;28;20259;-67
2021/03/09 13:43:55;;;;;;;;;;;8.30;60.10;;;;;;5115681;28;19911;-66
2021/03/09 13:46:21;;;;;;;;;;;8.00;61.10;;;;;;5113663;28;19958;-66
2021/03/09 13:48:46;;;;;;;;;;;8.30;60.20;;;;;;5115242;28;19923;-68
2021/03/09 13:51:12;;;;;;;;;;;8.50;59.80;;;;;;5114058;28;20289;-66
2021/03/09 13:53:40;;;;;;;;;;;9.00;59.30;;;;;;5096901;28;20031;-66
2021/03/09 13:56:05;;;;;;;;;;;9.10;58.30;;;;;;5115003;28;20288;-66
2021/03/09 13:58:31;;;;;;;;;;;9.10;57.90;;;;;;5114682;28;19927;-67
2021/03/09 14:00:56;;;;;;;;;;;9.30;58.30;;;;;;5113801;28;19927;-66
2021/03/09 14:03:22;;;;;;;;;;;9.20;58.20;;;;;;5114948;28;19946;-67
2021/03/09 14:05:47;;;;;;;;;;;9.00;58.30;;;;;;5114552;28;19958;-65
2021/03/09 14:08:13;;;;;;;;;;;8.90;58.00;;;;;;5115825;28;20026;-66
2021/03/09 14:10:38;;;;;;;;;;;8.70;58.40;;;;;;5115499;28;19911;-67
2021/03/09 14:13:04;;;;;;;;;;;8.70;58.90;;;;;;5115319;28;19920;-67
2021/03/09 14:15:29;;;;;;;;;;;8.70;58.40;;;;;;5113393;28;20197;-67
2021/03/09 14:17:55;;;;;;;;;;;8.60;58.30;;;;;;5114916;28;19919;-66
2021/03/09 14:20:20;;;;;;;;;;;8.30;58.40;;;;;;5117635;28;19916;-66